sensor_id;sensor_type;location;lat;lon;timestamp;P1;durP1;ratioP1;P2;durP2;ratioP2
7493;SDS011;3788;49.902;8.590;2022-10-16T00:00:43;3.83;;;1.70;;
7493;SDS011;3788;49.902;8.590;2022-10-16T00:03:09;2.60;;;2.00;;
7493;SDS011;3788;49.902;8.590;2022-10-16T00:05:40;2.20;;;2.00;;
7493;SDS011;3788;49.902;8.590;2022-10-16T00:08:08;1.63;;;1.53;;
7493;SDS011;3788;49.902;8.590;2022-10-16T00:10:37;3.60;;;1.80;;
7493;SDS011;3788;49.902;8.590;2022-10-16T00:13:05;1.47;;;1.40;;
7493;SDS011;3788;49.902;8.590;2022-10-16T00:15:33;2.57;;;1.70;;
7493;SDS011;3788;49.902;8.590;2022-10-16T00:18:02;2.03;;;1.93;;
7493;SDS011;3788;49.902;8.590;2022-10-16T00:20:29;2.73;;;1.63;;
7493;SDS011;3788;49.902;8.590;2022-10-16T00:22:58;2.27;;;2.07;;
7493;SDS011;3788;49.902;8.590;2022-10-16T00:25:25;2.17;;;1.97;;
7493;SDS011;3788;49.902;8.590;2022-10-16T00:27:52;2.47;;;2.17;;
7493;SDS011;3788;49.902;8.590;2022-10-16T00:30:20;2.93;;;1.90;;
7493;SDS011;3788;49.902;8.590;2022-10-16T00:32:48;2.23;;;2.07;;
7493;SDS011;3788;49.902;8.590;2022-10-16T00:35:14;2.00;;;1.73;;
7493;SDS011;3788;49.902;8.590;2022-10-16T00:37:41;1.67;;;1.53;;
7493;SDS011;3788;49.902;8.590;2022-10-16T00:40:08;1.50;;;1.40;;
7493;SDS011;3788;49.902;8.590;2022-10-16T00:42:36;1.60;;;1.50;;
7493;SDS011;3788;49.902;8.590;2022-10-16T00:45:03;3.47;;;1.63;;
7493;SDS011;3788;49.902;8.590;2022-10-16T00:47:34;1.40;;;1.30;;
7493;SDS011;3788;49.902;8.590;2022-10-16T00:50:04;5.07;;;1.97;;
7493;SDS011;3788;49.902;8.590;2022-10-16T00:52:34;1.47;;;1.37;;
7493;SDS011;3788;49.902;8.590;2022-10-16T00:55:02;1.60;;;1.50;;
7493;SDS011;3788;49.902;8.590;2022-10-16T00:57:32;1.43;;;1.23;;
7493;SDS011;3788;49.902;8.590;2022-10-16T00:59:58;1.10;;;1.10;;
7493;SDS011;3788;49.902;8.590;2022-10-16T01:02:27;1.30;;;1.20;;
7493;SDS011;3788;49.902;8.590;2022-10-16T01:04:55;1.27;;;1.17;;
7493;SDS011;3788;49.902;8.590;2022-10-16T01:07:29;1.27;;;1.17;;
7493;SDS011;3788;49.902;8.590;2022-10-16T01:10:07;1.60;;;1.00;;
7493;SDS011;3788;49.902;8.590;2022-10-16T01:12:42;1.20;;;1.03;;
7493;SDS011;3788;49.902;8.590;2022-10-16T01:15:16;1.67;;;0.90;;
7493;SDS011;3788;49.902;8.590;2022-10-16T01:17:49;0.93;;;0.93;;
7493;SDS011;3788;49.902;8.590;2022-10-16T01:20:24;1.37;;;0.90;;
7493;SDS011;3788;49.902;8.590;2022-10-16T01:23:04;0.80;;;0.80;;
7493;SDS011;3788;49.902;8.590;2022-10-16T01:25:39;0.97;;;0.80;;
7493;SDS011;3788;49.902;8.590;2022-10-16T01:28:21;2.67;;;0.90;;
7493;SDS011;3788;49.902;8.590;2022-10-16T01:30:52;1.17;;;0.73;;
7493;SDS011;3788;49.902;8.590;2022-10-16T01:33:24;2.10;;;0.90;;
7493;SDS011;3788;49.902;8.590;2022-10-16T01:35:58;1.03;;;0.70;;
7493;SDS011;3788;49.902;8.590;2022-10-16T01:38:29;0.80;;;0.80;;
7493;SDS011;3788;49.902;8.590;2022-10-16T01:41:00;1.17;;;0.70;;
7493;SDS011;3788;49.902;8.590;2022-10-16T01:43:33;1.07;;;0.97;;
7493;SDS011;3788;49.902;8.590;2022-10-16T01:46:03;0.70;;;0.70;;
7493;SDS011;3788;49.902;8.590;2022-10-16T01:48:33;0.70;;;0.70;;
7493;SDS011;3788;49.902;8.590;2022-10-16T01:51:03;2.93;;;0.70;;
7493;SDS011;3788;49.902;8.590;2022-10-16T01:53:31;1.53;;;0.70;;
7493;SDS011;3788;49.902;8.590;2022-10-16T01:55:59;0.77;;;0.77;;
7493;SDS011;3788;49.902;8.590;2022-10-16T01:58:28;0.73;;;0.73;;
7493;SDS011;3788;49.902;8.590;2022-10-16T02:01:00;0.77;;;0.70;;
7493;SDS011;3788;49.902;8.590;2022-10-16T02:03:28;3.60;;;0.80;;
7493;SDS011;3788;49.902;8.590;2022-10-16T02:05:56;1.07;;;0.80;;
7493;SDS011;3788;49.902;8.590;2022-10-16T02:08:25;0.70;;;0.70;;
7493;SDS011;3788;49.902;8.590;2022-10-16T02:10:55;0.90;;;0.90;;
7493;SDS011;3788;49.902;8.590;2022-10-16T02:13:23;5.90;;;1.00;;
7493;SDS011;3788;49.902;8.590;2022-10-16T02:15:55;0.90;;;0.90;;
7493;SDS011;3788;49.902;8.590;2022-10-16T02:18:23;1.03;;;1.00;;
7493;SDS011;3788;49.902;8.590;2022-10-16T02:20:55;1.87;;;0.90;;
7493;SDS011;3788;49.902;8.590;2022-10-16T02:23:28;1.10;;;1.00;;
7493;SDS011;3788;49.902;8.590;2022-10-16T02:26:01;2.13;;;1.17;;
7493;SDS011;3788;49.902;8.590;2022-10-16T02:28:33;2.40;;;1.17;;
7493;SDS011;3788;49.902;8.590;2022-10-16T02:31:04;1.47;;;1.10;;
7493;SDS011;3788;49.902;8.590;2022-10-16T02:33:36;1.50;;;1.10;;
7493;SDS011;3788;49.902;8.590;2022-10-16T02:36:06;3.40;;;1.50;;
7493;SDS011;3788;49.902;8.590;2022-10-16T02:38:33;1.20;;;1.10;;
7493;SDS011;3788;49.902;8.590;2022-10-16T02:41:01;2.50;;;1.30;;
7493;SDS011;3788;49.902;8.590;2022-10-16T02:43:29;1.53;;;1.30;;
7493;SDS011;3788;49.902;8.590;2022-10-16T02:45:56;1.40;;;1.30;;
7493;SDS011;3788;49.902;8.590;2022-10-16T02:48:23;1.60;;;1.50;;
7493;SDS011;3788;49.902;8.590;2022-10-16T02:50:51;1.70;;;1.60;;
7493;SDS011;3788;49.902;8.590;2022-10-16T02:53:17;2.20;;;1.50;;
7493;SDS011;3788;49.902;8.590;2022-10-16T02:55:44;3.73;;;1.40;;
7493;SDS011;3788;49.902;8.590;2022-10-16T02:58:11;1.63;;;1.50;;
7493;SDS011;3788;49.902;8.590;2022-10-16T03:00:38;2.70;;;1.37;;
7493;SDS011;3788;49.902;8.590;2022-10-16T03:03:04;1.90;;;1.70;;
7493;SDS011;3788;49.902;8.590;2022-10-16T03:05:31;3.93;;;1.80;;
7493;SDS011;3788;49.902;8.590;2022-10-16T03:07:59;2.73;;;2.10;;
7493;SDS011;3788;49.902;8.590;2022-10-16T03:10:26;1.80;;;1.70;;
7493;SDS011;3788;49.902;8.590;2022-10-16T03:12:53;2.93;;;2.27;;
7493;SDS011;3788;49.902;8.590;2022-10-16T03:15:20;2.27;;;1.80;;
7493;SDS011;3788;49.902;8.590;2022-10-16T03:17:46;2.30;;;2.10;;
7493;SDS011;3788;49.902;8.590;2022-10-16T03:20:13;2.23;;;2.03;;
7493;SDS011;3788;49.902;8.590;2022-10-16T03:22:40;2.10;;;1.90;;
7493;SDS011;3788;49.902;8.590;2022-10-16T03:25:08;3.67;;;2.10;;
7493;SDS011;3788;49.902;8.590;2022-10-16T03:27:35;2.13;;;2.00;;
7493;SDS011;3788;49.902;8.590;2022-10-16T03:30:02;2.70;;;2.40;;
7493;SDS011;3788;49.902;8.590;2022-10-16T03:32:29;2.03;;;1.83;;
7493;SDS011;3788;49.902;8.590;2022-10-16T03:34:55;2.37;;;1.90;;
7493;SDS011;3788;49.902;8.590;2022-10-16T03:37:23;2.30;;;1.77;;
7493;SDS011;3788;49.902;8.590;2022-10-16T03:39:49;1.87;;;1.60;;
7493;SDS011;3788;49.902;8.590;2022-10-16T03:42:17;1.70;;;1.60;;
7493;SDS011;3788;49.902;8.590;2022-10-16T03:44:44;1.63;;;1.47;;
7493;SDS011;3788;49.902;8.590;2022-10-16T03:47:11;1.50;;;1.40;;
7493;SDS011;3788;49.902;8.590;2022-10-16T03:49:38;1.20;;;1.10;;
7493;SDS011;3788;49.902;8.590;2022-10-16T03:52:05;1.70;;;1.60;;
7493;SDS011;3788;49.902;8.590;2022-10-16T03:54:31;1.50;;;1.33;;
7493;SDS011;3788;49.902;8.590;2022-10-16T03:56:58;1.27;;;1.20;;
7493;SDS011;3788;49.902;8.590;2022-10-16T03:59:26;1.97;;;1.30;;
7493;SDS011;3788;49.902;8.590;2022-10-16T04:01:53;1.40;;;1.30;;
7493;SDS011;3788;49.902;8.590;2022-10-16T04:04:19;3.40;;;1.70;;
7493;SDS011;3788;49.902;8.590;2022-10-16T04:06:46;1.67;;;1.40;;
7493;SDS011;3788;49.902;8.590;2022-10-16T04:09:13;3.67;;;1.80;;
7493;SDS011;3788;49.902;8.590;2022-10-16T04:11:40;2.43;;;1.60;;
7493;SDS011;3788;49.902;8.590;2022-10-16T04:14:07;2.57;;;1.90;;
7493;SDS011;3788;49.902;8.590;2022-10-16T04:16:35;3.17;;;1.90;;
7493;SDS011;3788;49.902;8.590;2022-10-16T04:19:02;2.60;;;1.80;;
7493;SDS011;3788;49.902;8.590;2022-10-16T04:21:29;3.00;;;1.80;;
7493;SDS011;3788;49.902;8.590;2022-10-16T04:23:55;2.00;;;1.80;;
7493;SDS011;3788;49.902;8.590;2022-10-16T04:26:22;2.00;;;1.90;;
7493;SDS011;3788;49.902;8.590;2022-10-16T04:28:49;2.30;;;2.10;;
7493;SDS011;3788;49.902;8.590;2022-10-16T04:31:16;1.83;;;1.73;;
7493;SDS011;3788;49.902;8.590;2022-10-16T04:33:44;3.10;;;2.10;;
7493;SDS011;3788;49.902;8.590;2022-10-16T04:36:11;2.20;;;1.90;;
7493;SDS011;3788;49.902;8.590;2022-10-16T04:38:38;2.10;;;1.90;;
7493;SDS011;3788;49.902;8.590;2022-10-16T04:41:05;2.57;;;2.37;;
7493;SDS011;3788;49.902;8.590;2022-10-16T04:43:33;3.40;;;1.93;;
7493;SDS011;3788;49.902;8.590;2022-10-16T04:46:00;2.30;;;2.10;;
7493;SDS011;3788;49.902;8.590;2022-10-16T04:48:29;2.97;;;2.20;;
7493;SDS011;3788;49.902;8.590;2022-10-16T04:50:57;2.50;;;2.30;;
7493;SDS011;3788;49.902;8.590;2022-10-16T04:53:24;3.07;;;2.07;;
7493;SDS011;3788;49.902;8.590;2022-10-16T04:55:52;2.70;;;2.50;;
7493;SDS011;3788;49.902;8.590;2022-10-16T04:58:19;2.80;;;2.23;;
7493;SDS011;3788;49.902;8.590;2022-10-16T05:00:45;2.90;;;2.50;;
7493;SDS011;3788;49.902;8.590;2022-10-16T05:03:12;3.33;;;2.33;;
7493;SDS011;3788;49.902;8.590;2022-10-16T05:05:42;3.07;;;2.20;;
7493;SDS011;3788;49.902;8.590;2022-10-16T05:08:11;4.27;;;2.30;;
7493;SDS011;3788;49.902;8.590;2022-10-16T05:10:38;4.90;;;2.47;;
7493;SDS011;3788;49.902;8.590;2022-10-16T05:13:05;2.70;;;2.40;;
7493;SDS011;3788;49.902;8.590;2022-10-16T05:15:31;2.50;;;2.30;;
7493;SDS011;3788;49.902;8.590;2022-10-16T05:17:58;2.60;;;2.40;;
7493;SDS011;3788;49.902;8.590;2022-10-16T05:20:25;2.33;;;2.13;;
7493;SDS011;3788;49.902;8.590;2022-10-16T05:22:52;2.40;;;2.20;;
7493;SDS011;3788;49.902;8.590;2022-10-16T05:25:20;2.40;;;2.20;;
7493;SDS011;3788;49.902;8.590;2022-10-16T05:27:47;3.37;;;2.53;;
7493;SDS011;3788;49.902;8.590;2022-10-16T05:30:14;2.83;;;2.47;;
7493;SDS011;3788;49.902;8.590;2022-10-16T05:32:41;2.20;;;2.00;;
7493;SDS011;3788;49.902;8.590;2022-10-16T05:35:11;2.33;;;2.13;;
7493;SDS011;3788;49.902;8.590;2022-10-16T05:37:38;2.60;;;2.40;;
7493;SDS011;3788;49.902;8.590;2022-10-16T05:40:05;3.23;;;2.67;;
7493;SDS011;3788;49.902;8.590;2022-10-16T05:42:34;2.50;;;2.30;;
7493;SDS011;3788;49.902;8.590;2022-10-16T05:45:02;3.47;;;2.40;;
7493;SDS011;3788;49.902;8.590;2022-10-16T05:47:29;3.67;;;2.40;;
7493;SDS011;3788;49.902;8.590;2022-10-16T05:49:56;2.90;;;2.40;;
7493;SDS011;3788;49.902;8.590;2022-10-16T05:52:23;3.07;;;2.43;;
7493;SDS011;3788;49.902;8.590;2022-10-16T05:54:49;2.50;;;2.30;;
7493;SDS011;3788;49.902;8.590;2022-10-16T05:57:16;5.63;;;2.83;;
7493;SDS011;3788;49.902;8.590;2022-10-16T05:59:44;2.57;;;2.37;;
7493;SDS011;3788;49.902;8.590;2022-10-16T06:02:11;2.47;;;2.27;;
7493;SDS011;3788;49.902;8.590;2022-10-16T06:04:39;2.50;;;2.30;;
7493;SDS011;3788;49.902;8.590;2022-10-16T06:07:05;3.13;;;2.50;;
7493;SDS011;3788;49.902;8.590;2022-10-16T06:09:32;3.23;;;2.60;;
7493;SDS011;3788;49.902;8.590;2022-10-16T06:11:59;2.90;;;2.67;;
7493;SDS011;3788;49.902;8.590;2022-10-16T06:14:26;2.40;;;2.13;;
7493;SDS011;3788;49.902;8.590;2022-10-16T06:16:54;2.77;;;2.50;;
7493;SDS011;3788;49.902;8.590;2022-10-16T06:19:20;2.67;;;2.47;;
7493;SDS011;3788;49.902;8.590;2022-10-16T06:21:47;3.03;;;2.37;;
7493;SDS011;3788;49.902;8.590;2022-10-16T06:24:14;2.83;;;2.57;;
7493;SDS011;3788;49.902;8.590;2022-10-16T06:26:41;2.40;;;2.20;;
7493;SDS011;3788;49.902;8.590;2022-10-16T06:29:08;2.57;;;2.37;;
7493;SDS011;3788;49.902;8.590;2022-10-16T06:31:35;2.60;;;2.40;;
7493;SDS011;3788;49.902;8.590;2022-10-16T06:34:03;2.40;;;2.20;;
7493;SDS011;3788;49.902;8.590;2022-10-16T06:36:34;2.57;;;2.37;;
7493;SDS011;3788;49.902;8.590;2022-10-16T06:39:01;2.03;;;1.93;;
7493;SDS011;3788;49.902;8.590;2022-10-16T06:41:30;2.10;;;1.90;;
7493;SDS011;3788;49.902;8.590;2022-10-16T06:43:57;2.30;;;1.97;;
7493;SDS011;3788;49.902;8.590;2022-10-16T06:46:24;2.20;;;2.00;;
7493;SDS011;3788;49.902;8.590;2022-10-16T06:48:52;2.27;;;1.90;;
7493;SDS011;3788;49.902;8.590;2022-10-16T06:51:21;1.93;;;1.83;;
7493;SDS011;3788;49.902;8.590;2022-10-16T06:53:49;2.03;;;1.87;;
7493;SDS011;3788;49.902;8.590;2022-10-16T06:56:17;2.43;;;2.07;;
7493;SDS011;3788;49.902;8.590;2022-10-16T06:58:45;2.17;;;1.97;;
7493;SDS011;3788;49.902;8.590;2022-10-16T07:01:13;3.10;;;2.30;;
7493;SDS011;3788;49.902;8.590;2022-10-16T07:03:41;2.13;;;2.00;;
7493;SDS011;3788;49.902;8.590;2022-10-16T07:06:10;2.57;;;2.00;;
7493;SDS011;3788;49.902;8.590;2022-10-16T07:08:40;2.40;;;2.17;;
7493;SDS011;3788;49.902;8.590;2022-10-16T07:11:09;2.27;;;1.93;;
7493;SDS011;3788;49.902;8.590;2022-10-16T07:13:37;2.40;;;2.20;;
7493;SDS011;3788;49.902;8.590;2022-10-16T07:16:05;2.47;;;1.90;;
7493;SDS011;3788;49.902;8.590;2022-10-16T07:18:32;3.23;;;2.53;;
7493;SDS011;3788;49.902;8.590;2022-10-16T07:21:02;2.30;;;2.10;;
7493;SDS011;3788;49.902;8.590;2022-10-16T07:23:30;3.80;;;2.10;;
7493;SDS011;3788;49.902;8.590;2022-10-16T07:25:58;4.73;;;2.60;;
7493;SDS011;3788;49.902;8.590;2022-10-16T07:28:25;2.37;;;2.17;;
7493;SDS011;3788;49.902;8.590;2022-10-16T07:30:52;2.30;;;2.07;;
7493;SDS011;3788;49.902;8.590;2022-10-16T07:33:19;2.60;;;2.40;;
7493;SDS011;3788;49.902;8.590;2022-10-16T07:35:49;3.07;;;2.53;;
7493;SDS011;3788;49.902;8.590;2022-10-16T07:38:17;2.50;;;1.97;;
7493;SDS011;3788;49.902;8.590;2022-10-16T07:40:44;2.10;;;1.90;;
7493;SDS011;3788;49.902;8.590;2022-10-16T07:43:13;2.27;;;2.07;;
7493;SDS011;3788;49.902;8.590;2022-10-16T07:45:46;2.47;;;2.13;;
7493;SDS011;3788;49.902;8.590;2022-10-16T07:48:14;1.93;;;1.80;;
7493;SDS011;3788;49.902;8.590;2022-10-16T07:50:41;3.57;;;2.30;;
7493;SDS011;3788;49.902;8.590;2022-10-16T07:53:08;2.17;;;2.00;;
7493;SDS011;3788;49.902;8.590;2022-10-16T07:55:35;2.30;;;2.10;;
7493;SDS011;3788;49.902;8.590;2022-10-16T07:58:01;2.00;;;1.80;;
7493;SDS011;3788;49.902;8.590;2022-10-16T08:00:31;2.90;;;1.70;;
7493;SDS011;3788;49.902;8.590;2022-10-16T08:02:58;3.60;;;2.40;;
7493;SDS011;3788;49.902;8.590;2022-10-16T08:05:25;2.33;;;1.90;;
7493;SDS011;3788;49.902;8.590;2022-10-16T08:07:52;2.10;;;1.83;;
7493;SDS011;3788;49.902;8.590;2022-10-16T08:10:19;1.73;;;1.63;;
7493;SDS011;3788;49.902;8.590;2022-10-16T08:12:47;2.83;;;1.97;;
7493;SDS011;3788;49.902;8.590;2022-10-16T08:15:14;2.37;;;2.17;;
7493;SDS011;3788;49.902;8.590;2022-10-16T08:17:42;2.93;;;1.87;;
7493;SDS011;3788;49.902;8.590;2022-10-16T08:20:09;3.23;;;2.20;;
7493;SDS011;3788;49.902;8.590;2022-10-16T08:22:36;2.87;;;2.50;;
7493;SDS011;3788;49.902;8.590;2022-10-16T08:25:03;3.17;;;2.40;;
7493;SDS011;3788;49.902;8.590;2022-10-16T08:27:31;3.50;;;2.70;;
7493;SDS011;3788;49.902;8.590;2022-10-16T08:29:57;4.27;;;3.30;;
7493;SDS011;3788;49.902;8.590;2022-10-16T08:32:24;3.67;;;3.37;;
7493;SDS011;3788;49.902;8.590;2022-10-16T08:34:52;3.23;;;2.90;;
7493;SDS011;3788;49.902;8.590;2022-10-16T08:37:19;3.33;;;2.73;;
7493;SDS011;3788;49.902;8.590;2022-10-16T08:39:46;2.77;;;2.57;;
7493;SDS011;3788;49.902;8.590;2022-10-16T08:42:26;4.07;;;3.43;;
7493;SDS011;3788;49.902;8.590;2022-10-16T08:45:10;2.80;;;2.60;;
7493;SDS011;3788;49.902;8.590;2022-10-16T08:47:49;2.50;;;2.30;;
7493;SDS011;3788;49.902;8.590;2022-10-16T08:50:25;6.10;;;2.40;;
7493;SDS011;3788;49.902;8.590;2022-10-16T08:52:53;2.40;;;2.20;;
7493;SDS011;3788;49.902;8.590;2022-10-16T08:55:27;2.50;;;2.30;;
7493;SDS011;3788;49.902;8.590;2022-10-16T08:57:58;4.03;;;2.73;;
7493;SDS011;3788;49.902;8.590;2022-10-16T09:00:25;4.03;;;2.50;;
7493;SDS011;3788;49.902;8.590;2022-10-16T09:02:55;2.63;;;2.20;;
7493;SDS011;3788;49.902;8.590;2022-10-16T09:05:47;3.80;;;2.07;;
7493;SDS011;3788;49.902;8.590;2022-10-16T09:08:26;4.97;;;2.70;;
7493;SDS011;3788;49.902;8.590;2022-10-16T09:11:02;4.63;;;2.47;;
7493;SDS011;3788;49.902;8.590;2022-10-16T09:13:39;3.33;;;2.40;;
7493;SDS011;3788;49.902;8.590;2022-10-16T09:16:15;3.50;;;2.37;;
7493;SDS011;3788;49.902;8.590;2022-10-16T09:18:48;3.20;;;2.50;;
7493;SDS011;3788;49.902;8.590;2022-10-16T09:21:23;2.17;;;2.07;;
7493;SDS011;3788;49.902;8.590;2022-10-16T09:23:53;5.97;;;2.87;;
7493;SDS011;3788;49.902;8.590;2022-10-16T09:26:23;3.43;;;2.30;;
7493;SDS011;3788;49.902;8.590;2022-10-16T09:28:51;3.60;;;2.83;;
7493;SDS011;3788;49.902;8.590;2022-10-16T09:31:19;4.10;;;3.37;;
7493;SDS011;3788;49.902;8.590;2022-10-16T09:33:48;2.67;;;2.47;;
7493;SDS011;3788;49.902;8.590;2022-10-16T09:36:19;2.60;;;2.40;;
7493;SDS011;3788;49.902;8.590;2022-10-16T09:38:48;4.03;;;2.50;;
7493;SDS011;3788;49.902;8.590;2022-10-16T09:41:16;2.70;;;2.37;;
7493;SDS011;3788;49.902;8.590;2022-10-16T09:43:48;2.40;;;2.20;;
7493;SDS011;3788;49.902;8.590;2022-10-16T09:46:21;2.23;;;2.03;;
7493;SDS011;3788;49.902;8.590;2022-10-16T09:48:51;3.67;;;2.70;;
7493;SDS011;3788;49.902;8.590;2022-10-16T09:51:24;2.40;;;2.20;;
7493;SDS011;3788;49.902;8.590;2022-10-16T09:53:58;3.50;;;2.60;;
7493;SDS011;3788;49.902;8.590;2022-10-16T09:56:27;3.00;;;2.70;;
7493;SDS011;3788;49.902;8.590;2022-10-16T09:58:56;3.23;;;2.40;;
7493;SDS011;3788;49.902;8.590;2022-10-16T10:01:26;6.00;;;3.07;;
7493;SDS011;3788;49.902;8.590;2022-10-16T10:04:06;3.13;;;2.33;;
7493;SDS011;3788;49.902;8.590;2022-10-16T10:06:34;2.50;;;2.30;;
7493;SDS011;3788;49.902;8.590;2022-10-16T10:09:06;3.97;;;2.70;;
7493;SDS011;3788;49.902;8.590;2022-10-16T10:11:42;2.77;;;2.57;;
7493;SDS011;3788;49.902;8.590;2022-10-16T10:14:17;4.73;;;2.93;;
7493;SDS011;3788;49.902;8.590;2022-10-16T10:19:46;3.33;;;2.30;;
7493;SDS011;3788;49.902;8.590;2022-10-16T10:22:19;5.47;;;2.70;;
7493;SDS011;3788;49.902;8.590;2022-10-16T10:25:04;2.87;;;2.60;;
7493;SDS011;3788;49.902;8.590;2022-10-16T10:27:56;2.50;;;2.30;;
7493;SDS011;3788;49.902;8.590;2022-10-16T10:30:37;3.97;;;2.57;;
7493;SDS011;3788;49.902;8.590;2022-10-16T10:33:13;3.20;;;2.90;;
7493;SDS011;3788;49.902;8.590;2022-10-16T10:35:49;3.43;;;3.13;;
7493;SDS011;3788;49.902;8.590;2022-10-16T10:38:33;4.50;;;2.70;;
7493;SDS011;3788;49.902;8.590;2022-10-16T10:41:26;3.97;;;3.17;;
7493;SDS011;3788;49.902;8.590;2022-10-16T10:44:10;3.40;;;3.10;;
7493;SDS011;3788;49.902;8.590;2022-10-16T10:46:47;3.97;;;2.80;;
7493;SDS011;3788;49.902;8.590;2022-10-16T10:52:13;2.57;;;2.30;;
7493;SDS011;3788;49.902;8.590;2022-10-16T10:55:19;3.73;;;3.20;;
7493;SDS011;3788;49.902;8.590;2022-10-16T10:58:00;4.53;;;2.60;;
7493;SDS011;3788;49.902;8.590;2022-10-16T11:00:53;2.50;;;2.27;;
7493;SDS011;3788;49.902;8.590;2022-10-16T11:03:31;2.53;;;2.33;;
7493;SDS011;3788;49.902;8.590;2022-10-16T11:06:04;2.30;;;2.10;;
7493;SDS011;3788;49.902;8.590;2022-10-16T11:08:35;2.23;;;2.00;;
7493;SDS011;3788;49.902;8.590;2022-10-16T11:11:09;3.17;;;1.63;;
7493;SDS011;3788;49.902;8.590;2022-10-16T11:13:57;1.67;;;1.50;;
7493;SDS011;3788;49.902;8.590;2022-10-16T11:16:30;1.60;;;1.50;;
7493;SDS011;3788;49.902;8.590;2022-10-16T11:18:59;1.50;;;1.40;;
7493;SDS011;3788;49.902;8.590;2022-10-16T11:21:39;2.13;;;1.30;;
7493;SDS011;3788;49.902;8.590;2022-10-16T11:24:18;2.10;;;1.60;;
7493;SDS011;3788;49.902;8.590;2022-10-16T11:26:49;1.57;;;1.40;;
7493;SDS011;3788;49.902;8.590;2022-10-16T11:29:22;1.70;;;1.60;;
7493;SDS011;3788;49.902;8.590;2022-10-16T11:31:53;2.80;;;1.50;;
7493;SDS011;3788;49.902;8.590;2022-10-16T11:34:25;1.60;;;1.37;;
7493;SDS011;3788;49.902;8.590;2022-10-16T11:36:56;2.30;;;1.60;;
7493;SDS011;3788;49.902;8.590;2022-10-16T11:39:29;1.77;;;1.67;;
7493;SDS011;3788;49.902;8.590;2022-10-16T11:41:58;2.47;;;1.70;;
7493;SDS011;3788;49.902;8.590;2022-10-16T11:44:42;2.43;;;1.70;;
7493;SDS011;3788;49.902;8.590;2022-10-16T11:50:01;2.07;;;1.70;;
7493;SDS011;3788;49.902;8.590;2022-10-16T11:52:33;1.60;;;1.50;;
7493;SDS011;3788;49.902;8.590;2022-10-16T11:55:08;1.63;;;1.53;;
7493;SDS011;3788;49.902;8.590;2022-10-16T11:57:42;2.03;;;1.60;;
7493;SDS011;3788;49.902;8.590;2022-10-16T12:00:18;1.50;;;1.40;;
7493;SDS011;3788;49.902;8.590;2022-10-16T12:02:50;1.53;;;1.43;;
7493;SDS011;3788;49.902;8.590;2022-10-16T12:05:24;1.27;;;1.20;;
7493;SDS011;3788;49.902;8.590;2022-10-16T12:08:02;4.30;;;1.80;;
7493;SDS011;3788;49.902;8.590;2022-10-16T12:10:36;2.10;;;1.80;;
7493;SDS011;3788;49.902;8.590;2022-10-16T12:13:03;2.00;;;1.80;;
7493;SDS011;3788;49.902;8.590;2022-10-16T12:15:32;1.70;;;1.60;;
7493;SDS011;3788;49.902;8.590;2022-10-16T12:18:00;1.50;;;1.40;;
7493;SDS011;3788;49.902;8.590;2022-10-16T12:20:28;1.83;;;1.57;;
7493;SDS011;3788;49.902;8.590;2022-10-16T12:22:58;1.70;;;1.60;;
7493;SDS011;3788;49.902;8.590;2022-10-16T12:25:27;2.20;;;1.70;;
7493;SDS011;3788;49.902;8.590;2022-10-16T12:27:57;1.83;;;1.73;;
7493;SDS011;3788;49.902;8.590;2022-10-16T12:30:27;1.70;;;1.60;;
7493;SDS011;3788;49.902;8.590;2022-10-16T12:32:57;1.90;;;1.80;;
7493;SDS011;3788;49.902;8.590;2022-10-16T12:35:27;2.03;;;1.67;;
7493;SDS011;3788;49.902;8.590;2022-10-16T12:38:04;1.90;;;1.80;;
7493;SDS011;3788;49.902;8.590;2022-10-16T12:40:40;1.60;;;1.50;;
7493;SDS011;3788;49.902;8.590;2022-10-16T12:46:02;2.27;;;2.07;;
7493;SDS011;3788;49.902;8.590;2022-10-16T12:48:32;1.93;;;1.80;;
7493;SDS011;3788;49.902;8.590;2022-10-16T12:51:09;3.10;;;2.03;;
7493;SDS011;3788;49.902;8.590;2022-10-16T12:53:36;2.00;;;1.80;;
7493;SDS011;3788;49.902;8.590;2022-10-16T12:56:04;1.87;;;1.73;;
7493;SDS011;3788;49.902;8.590;2022-10-16T12:58:43;1.80;;;1.70;;
7493;SDS011;3788;49.902;8.590;2022-10-16T13:01:34;4.03;;;1.97;;
7493;SDS011;3788;49.902;8.590;2022-10-16T13:04:20;2.77;;;2.00;;
7493;SDS011;3788;49.902;8.590;2022-10-16T13:06:59;1.50;;;1.40;;
7493;SDS011;3788;49.902;8.590;2022-10-16T13:09:42;2.17;;;2.00;;
7493;SDS011;3788;49.902;8.590;2022-10-16T13:12:25;2.30;;;1.57;;
7493;SDS011;3788;49.902;8.590;2022-10-16T13:15:05;1.80;;;1.70;;
7493;SDS011;3788;49.902;8.590;2022-10-16T13:17:44;1.90;;;1.80;;
7493;SDS011;3788;49.902;8.590;2022-10-16T13:20:21;2.23;;;1.77;;
7493;SDS011;3788;49.902;8.590;2022-10-16T13:22:56;2.23;;;2.03;;
7493;SDS011;3788;49.902;8.590;2022-10-16T13:25:34;1.67;;;1.57;;
7493;SDS011;3788;49.902;8.590;2022-10-16T13:28:10;2.10;;;2.00;;
7493;SDS011;3788;49.902;8.590;2022-10-16T13:30:38;2.07;;;1.97;;
7493;SDS011;3788;49.902;8.590;2022-10-16T13:33:10;2.13;;;1.90;;
7493;SDS011;3788;49.902;8.590;2022-10-16T13:35:48;1.90;;;1.80;;
7493;SDS011;3788;49.902;8.590;2022-10-16T13:38:17;1.90;;;1.80;;
7493;SDS011;3788;49.902;8.590;2022-10-16T13:40:49;2.47;;;2.27;;
7493;SDS011;3788;49.902;8.590;2022-10-16T13:43:18;1.93;;;1.83;;
7493;SDS011;3788;49.902;8.590;2022-10-16T13:45:58;2.77;;;2.27;;
7493;SDS011;3788;49.902;8.590;2022-10-16T13:48:27;2.33;;;2.10;;
7493;SDS011;3788;49.902;8.590;2022-10-16T13:50:59;2.47;;;2.27;;
7493;SDS011;3788;49.902;8.590;2022-10-16T13:53:29;2.00;;;1.90;;
7493;SDS011;3788;49.902;8.590;2022-10-16T13:55:57;2.60;;;2.20;;
7493;SDS011;3788;49.902;8.590;2022-10-16T13:58:26;2.77;;;2.00;;
7493;SDS011;3788;49.902;8.590;2022-10-16T14:00:53;2.07;;;1.97;;
7493;SDS011;3788;49.902;8.590;2022-10-16T14:03:22;1.83;;;1.73;;
7493;SDS011;3788;49.902;8.590;2022-10-16T14:05:51;1.77;;;1.67;;
7493;SDS011;3788;49.902;8.590;2022-10-16T14:08:20;1.70;;;1.60;;
7493;SDS011;3788;49.902;8.590;2022-10-16T14:10:49;1.90;;;1.80;;
7493;SDS011;3788;49.902;8.590;2022-10-16T14:13:17;1.73;;;1.63;;
7493;SDS011;3788;49.902;8.590;2022-10-16T14:15:46;1.70;;;1.60;;
7493;SDS011;3788;49.902;8.590;2022-10-16T14:18:16;1.70;;;1.60;;
7493;SDS011;3788;49.902;8.590;2022-10-16T14:20:46;1.63;;;1.53;;
7493;SDS011;3788;49.902;8.590;2022-10-16T14:23:22;2.37;;;2.17;;
7493;SDS011;3788;49.902;8.590;2022-10-16T14:25:54;2.53;;;1.97;;
7493;SDS011;3788;49.902;8.590;2022-10-16T14:28:32;2.40;;;2.20;;
7493;SDS011;3788;49.902;8.590;2022-10-16T14:31:00;2.27;;;2.07;;
7493;SDS011;3788;49.902;8.590;2022-10-16T14:33:31;2.07;;;1.90;;
7493;SDS011;3788;49.902;8.590;2022-10-16T14:36:04;2.10;;;1.77;;
7493;SDS011;3788;49.902;8.590;2022-10-16T14:38:38;2.73;;;2.00;;
7493;SDS011;3788;49.902;8.590;2022-10-16T14:41:06;1.83;;;1.73;;
7493;SDS011;3788;49.902;8.590;2022-10-16T14:43:34;1.73;;;1.63;;
7493;SDS011;3788;49.902;8.590;2022-10-16T14:46:03;2.00;;;1.90;;
7493;SDS011;3788;49.902;8.590;2022-10-16T14:48:35;1.80;;;1.70;;
7493;SDS011;3788;49.902;8.590;2022-10-16T14:51:02;1.77;;;1.50;;
7493;SDS011;3788;49.902;8.590;2022-10-16T14:53:28;1.70;;;1.50;;
7493;SDS011;3788;49.902;8.590;2022-10-16T14:55:57;2.07;;;1.97;;
7493;SDS011;3788;49.902;8.590;2022-10-16T14:58:23;1.97;;;1.80;;
7493;SDS011;3788;49.902;8.590;2022-10-16T15:00:52;2.00;;;1.80;;
7493;SDS011;3788;49.902;8.590;2022-10-16T15:03:19;1.73;;;1.63;;
7493;SDS011;3788;49.902;8.590;2022-10-16T15:05:46;1.90;;;1.80;;
7493;SDS011;3788;49.902;8.590;2022-10-16T15:08:13;2.03;;;1.87;;
7493;SDS011;3788;49.902;8.590;2022-10-16T15:10:40;1.60;;;1.50;;
7493;SDS011;3788;49.902;8.590;2022-10-16T15:13:12;2.03;;;1.83;;
7493;SDS011;3788;49.902;8.590;2022-10-16T15:15:41;2.20;;;1.83;;
7493;SDS011;3788;49.902;8.590;2022-10-16T15:18:09;2.60;;;1.80;;
7493;SDS011;3788;49.902;8.590;2022-10-16T15:20:37;2.07;;;1.87;;
7493;SDS011;3788;49.902;8.590;2022-10-16T15:23:10;1.80;;;1.70;;
7493;SDS011;3788;49.902;8.590;2022-10-16T15:25:41;1.83;;;1.70;;
7493;SDS011;3788;49.902;8.590;2022-10-16T15:28:10;1.57;;;1.47;;
7493;SDS011;3788;49.902;8.590;2022-10-16T15:30:39;3.20;;;1.80;;
7493;SDS011;3788;49.902;8.590;2022-10-16T15:33:10;1.80;;;1.70;;
7493;SDS011;3788;49.902;8.590;2022-10-16T15:35:39;1.57;;;1.47;;
7493;SDS011;3788;49.902;8.590;2022-10-16T15:38:08;1.70;;;1.57;;
7493;SDS011;3788;49.902;8.590;2022-10-16T15:40:38;2.23;;;1.43;;
7493;SDS011;3788;49.902;8.590;2022-10-16T15:43:05;1.50;;;1.40;;
7493;SDS011;3788;49.902;8.590;2022-10-16T15:45:33;2.17;;;1.80;;